Time;durP1;ratioP1;P1;durP2;ratioP2;P2;SDS_P1;SDS_P2;PMS_P1;PMS_P2;Temp;Humidity;BMP_temperature;BMP_pressure;BME280_temperature;BME280_humidity;BME280_pressure;Samples;Min_cycle;Max_cycle;Signal;HPM_P1;HPM_P2
2024/02/23 00:03:55;;;;;;;57.13;54.17;;;8.20;52.60;;;;;;12467863;28;20050;-83
2024/02/23 00:09:57;;;;;;;53.00;50.17;;;8.20;90.80;;;;;;12454083;28;20128;-83
2024/02/23 00:15:59;;;;;;;50.60;48.10;;;8.20;45.20;;;;;;12462930;28;20045;-90
2024/02/23 00:22:01;;;;;;;50.55;48.13;;;8.10;69.30;;;;;;12492538;28;20413;-89
2024/02/23 00:28:06;;;;;;;51.95;49.35;;;8.00;81.20;;;;;;12494825;28;20915;-85
2024/02/23 00:34:10;;;;;;;51.50;48.88;;;7.90;87.40;;;;;;12487296;28;20057;-85
2024/02/23 00:40:17;;;;;;;59.05;56.25;;;7.90;95.90;;;;;;12490086;28;20053;-88
2024/02/23 00:46:19;;;;;;;31.02;29.38;;;7.50;99.90;;;;;;12485159;28;20060;-85
2024/02/23 00:52:21;;;;;;;20.75;19.65;;;7.10;99.90;;;;;;12516985;28;20109;-86
2024/02/23 00:58:24;;;;;;;21.58;20.50;;;7.00;99.90;;;;;;12477135;28;20054;-88
2024/02/23 01:04:26;;;;;;;18.13;17.20;;;6.90;99.90;;;;;;12501808;28;20068;-84
2024/02/23 01:10:28;;;;;;;12.65;11.95;;;6.60;99.90;;;;;;12514510;28;20048;-87
2024/02/23 01:16:32;;;;;;;13.85;13.05;;;6.10;99.90;;;;;;12477541;28;20045;-88
2024/02/23 01:22:34;;;;;;;15.00;14.30;;;5.90;99.90;;;;;;12509077;28;20041;-86
2024/02/23 01:28:36;;;;;;;21.02;20.02;;;5.70;99.90;;;;;;12520156;22;20052;-36
2024/02/23 01:34:38;;;;;;;35.67;33.90;;;5.50;99.90;;;;;;12499755;28;20145;-36
2024/02/23 01:40:40;;;;;;;38.05;36.25;;;5.60;99.90;;;;;;12511119;28;20506;-36
2024/02/23 01:46:42;;;;;;;40.50;38.53;;;5.50;99.90;;;;;;12506703;28;20120;-36
2024/02/23 01:52:44;;;;;;;38.05;36.22;;;5.40;99.90;;;;;;12503361;28;20049;-36
2024/02/23 01:58:46;;;;;;;38.88;36.97;;;5.40;99.90;;;;;;12497230;28;20120;-36
2024/02/23 02:04:48;;;;;;;45.05;42.85;;;5.40;99.90;;;;;;12490653;28;20080;-36
2024/02/23 02:10:50;;;;;;;42.08;40.08;;;5.20;99.90;;;;;;12496947;28;20037;-36
2024/02/23 02:16:52;;;;;;;33.38;31.58;;;5.30;99.90;;;;;;12492172;28;20087;-36
2024/02/23 02:22:54;;;;;;;31.88;30.27;;;5.40;99.90;;;;;;12487800;28;20064;-35
2024/02/23 02:28:56;;;;;;;63.42;60.28;;;5.40;99.90;;;;;;12493727;28;20532;-36
2024/02/23 02:34:58;;;;;;;62.00;58.92;;;5.30;99.90;;;;;;12493915;28;20469;-35
2024/02/23 02:41:00;;;;;;;61.95;58.85;;;5.20;99.90;;;;;;12488249;28;20198;-36
2024/02/23 02:47:02;;;;;;;69.60;66.13;;;5.30;99.90;;;;;;12487037;28;20615;-36
2024/02/23 02:53:04;;;;;;;71.65;68.10;;;5.30;99.90;;;;;;12494836;28;20049;-37
2024/02/23 02:59:06;;;;;;;70.80;67.20;;;5.30;99.90;;;;;;12498667;28;20132;-36
2024/02/23 03:05:08;;;;;;;68.18;64.78;;;5.30;99.90;;;;;;12506850;28;20119;-36
2024/02/23 03:11:12;;;;;;;68.78;65.30;;;5.30;99.90;;;;;;12506742;28;20061;-36
2024/02/23 03:17:14;;;;;;;67.50;64.13;;;5.30;99.90;;;;;;12490676;28;20049;-36
2024/02/23 03:23:16;;;;;;;70.07;66.57;;;5.30;99.90;;;;;;12512536;28;20048;-35
2024/02/23 03:29:18;;;;;;;70.22;66.70;;;5.30;99.90;;;;;;12514618;28;20041;-36
2024/02/23 03:35:20;;;;;;;62.90;59.55;;;5.30;99.90;;;;;;12513947;28;20053;-36
2024/02/23 03:41:22;;;;;;;67.57;64.18;;;5.40;99.90;;;;;;12488731;28;20053;-36
2024/02/23 03:47:24;;;;;;;73.97;70.38;;;5.50;99.90;;;;;;12486852;28;20050;-36
2024/02/23 03:53:26;;;;;;;69.47;65.95;;;5.50;99.90;;;;;;12490351;28;20087;-35
2024/02/23 03:59:28;;;;;;;71.05;67.57;;;5.50;99.90;;;;;;12486806;28;20057;-36
2024/02/23 04:05:30;;;;;;;69.63;65.97;;;5.50;99.90;;;;;;12481800;28;20455;-36
2024/02/23 04:11:32;;;;;;;69.82;66.43;;;5.60;99.90;;;;;;12503305;28;20413;-35
2024/02/23 04:17:34;;;;;;;62.75;59.63;;;5.60;99.90;;;;;;12482020;28;20048;-36
2024/02/23 04:23:36;;;;;;;69.72;66.22;;;5.60;99.90;;;;;;12483376;28;20440;-35
2024/02/23 04:29:38;;;;;;;70.38;66.88;;;5.60;99.90;;;;;;12495802;28;20056;-35
2024/02/23 04:35:40;;;;;;;64.03;60.78;;;5.50;99.90;;;;;;12515232;28;20056;-36
2024/02/23 04:41:42;;;;;;;68.95;65.53;;;5.50;99.90;;;;;;12494132;28;20421;-35
2024/02/23 04:47:46;;;;;;;66.85;63.55;;;5.50;99.90;;;;;;12503880;28;20053;-36
2024/02/23 04:53:49;;;;;;;;;;;5.40;99.90;;;;;;12505768;28;20045;-36
2024/02/23 04:59:51;;;;;;;63.78;60.53;;;5.40;99.90;;;;;;12523850;28;19967;-37
2024/02/23 05:05:53;;;;;;;63.95;60.75;;;5.40;99.90;;;;;;12514279;28;20077;-36
2024/02/23 05:11:56;;;;;;;54.35;51.58;;;5.30;99.90;;;;;;12505092;28;20041;-36
2024/02/23 05:17:58;;;;;;;63.72;60.47;;;5.30;99.90;;;;;;12515766;28;20052;-36
2024/02/23 05:24:00;;;;;;;61.72;58.35;;;5.20;99.90;;;;;;12519055;28;20136;-36
2024/02/23 05:30:02;;;;;;;59.17;56.08;;;5.40;99.90;;;;;;12510984;28;20402;-36
2024/02/23 05:36:05;;;;;;;58.13;54.97;;;5.40;99.90;;;;;;12515836;28;20502;-36
2024/02/23 05:42:07;;;;;;;58.83;55.75;;;5.40;99.90;;;;;;12489235;28;20076;-36
2024/02/23 05:48:09;;;;;;;55.78;52.88;;;5.30;99.90;;;;;;12496377;28;20045;-36
2024/02/23 05:54:11;;;;;;;58.05;55.05;;;5.30;99.90;;;;;;12487699;28;20069;-35
2024/02/23 06:00:14;;;;;;;55.05;52.35;;;5.30;99.90;;;;;;12499556;28;20082;-36
2024/02/23 06:06:17;;;;;;;;;;;5.30;99.90;;;;;;12486076;28;20053;-36
2024/02/23 06:12:19;;;;;;;51.47;48.88;;;5.30;99.90;;;;;;12487709;28;19944;-35
2024/02/23 06:18:21;;;;;;;51.80;48.97;;;5.30;99.90;;;;;;12494622;28;20049;-36
2024/02/23 06:24:23;;;;;;;50.03;47.33;;;5.30;99.90;;;;;;12482037;28;20406;-36
2024/02/23 06:30:25;;;;;;;48.45;45.95;;;5.30;99.90;;;;;;12462287;28;20068;-35
2024/02/23 06:36:27;;;;;;;47.42;45.03;;;5.30;99.90;;;;;;12484187;28;20056;-36
2024/02/23 06:42:28;;;;;;;48.25;45.72;;;5.30;99.90;;;;;;12508508;28;20064;-36
2024/02/23 06:48:32;;;;;;;50.03;47.53;;;5.40;99.90;;;;;;12496391;28;20041;-36
2024/02/23 06:54:34;;;;;;;50.28;47.70;;;5.40;99.90;;;;;;12500562;28;20045;-36
2024/02/23 07:00:36;;;;;;;46.25;43.70;;;5.40;99.90;;;;;;12501605;28;20132;-36
2024/02/23 07:06:38;;;;;;;45.97;43.63;;;5.40;99.90;;;;;;12514234;28;20178;-36
2024/02/23 07:12:40;;;;;;;49.13;46.53;;;5.50;99.90;;;;;;12505445;28;20042;-36
2024/02/23 07:18:42;;;;;;;48.22;45.78;;;5.40;99.90;;;;;;12480844;28;20163;-36
2024/02/23 07:24:44;;;;;;;48.35;46.03;;;5.50;99.90;;;;;;12518027;28;20516;-36
2024/02/23 07:30:46;;;;;;;49.70;46.95;;;5.60;99.90;;;;;;12518815;28;20140;-36
2024/02/23 07:36:52;;;;;;;44.85;42.45;;;5.70;99.90;;;;;;12537650;28;20056;-36
2024/02/23 07:42:54;;;;;;;48.58;45.90;;;5.60;99.90;;;;;;12506050;28;20053;-36
2024/02/23 07:48:56;;;;;;;40.53;38.50;;;5.60;99.90;;;;;;12496140;28;20060;-36
2024/02/23 07:54:59;;;;;;;43.17;40.97;;;5.70;99.90;;;;;;12485949;28;20080;-36
2024/02/23 08:01:02;;;;;;;42.67;40.57;;;5.80;99.90;;;;;;12511540;28;20079;-36
2024/02/23 08:07:05;;;;;;;39.60;37.33;;;5.90;99.90;;;;;;12457189;28;20172;-36
2024/02/23 08:13:10;;;;;;;40.55;38.45;;;6.00;99.90;;;;;;12458070;28;20056;-36
2024/02/23 08:19:12;;;;;;;37.60;35.60;;;6.10;99.90;;;;;;12444585;28;20487;-36
2024/02/23 08:25:14;;;;;;;34.65;32.83;;;6.30;99.90;;;;;;12459185;28;20716;-36
2024/02/23 08:31:16;;;;;;;35.75;33.85;;;6.50;90.60;;;;;;12492967;28;20053;-36
2024/02/23 08:37:19;;;;;;;35.08;33.38;;;6.60;99.90;;;;;;12486189;28;20072;-36
2024/02/23 08:43:21;;;;;;;35.10;32.95;;;6.60;99.90;;;;;;12503730;28;20064;-36
2024/02/23 08:49:23;;;;;;;33.20;31.58;;;6.90;99.90;;;;;;12518370;28;20052;-37
2024/02/23 08:55:24;;;;;;;31.27;29.60;;;6.80;99.90;;;;;;12506424;28;20119;-36
2024/02/23 09:01:26;;;;;;;31.20;29.33;;;7.00;99.90;;;;;;12507767;28;20053;-36
2024/02/23 09:07:30;;;;;;;33.63;31.85;;;7.00;99.90;;;;;;12510582;28;20140;-36
2024/02/23 09:13:32;;;;;;;35.42;33.63;;;6.80;99.90;;;;;;12516068;28;20409;-37
2024/02/23 09:19:34;;;;;;;34.92;33.20;;;6.80;99.90;;;;;;12506509;28;20508;-36
2024/02/23 09:25:36;;;;;;;38.08;36.08;;;6.80;99.90;;;;;;12507543;28;20071;-36
2024/02/23 09:31:38;;;;;;;35.63;33.83;;;6.90;99.90;;;;;;12494217;28;20056;-36
2024/02/23 09:37:40;;;;;;;34.58;32.70;;;6.80;99.90;;;;;;12517925;28;20067;-36
2024/02/23 09:43:44;;;;;;;32.13;30.48;;;6.70;99.90;;;;;;12517378;28;20056;-36
2024/02/23 09:49:50;;;;;;;33.57;31.50;;;6.60;99.90;;;;;;12484199;28;20049;-36
2024/02/23 09:55:53;;;;;;;33.85;32.08;;;6.60;99.90;;;;;;12473721;28;20083;-36
2024/02/23 10:01:55;;;;;;;32.22;30.63;;;6.60;99.90;;;;;;12498612;28;20060;-36
2024/02/23 10:07:58;;;;;;;33.67;31.90;;;6.60;99.90;;;;;;12487409;28;20041;-36
2024/02/23 10:14:00;;;;;;;32.25;30.45;;;6.60;99.90;;;;;;12482374;28;20417;-36
2024/02/23 10:20:05;;;;;;;25.95;24.40;;;6.70;99.90;;;;;;12477752;28;20045;-36
2024/02/23 10:26:08;;;;;;;27.13;25.35;;;6.80;99.90;;;;;;12479815;28;20099;-35
2024/02/23 10:32:15;;;;;;;22.13;20.65;;;6.90;99.90;;;;;;12510683;28;20060;-36
2024/02/23 10:38:19;;;;;;;25.27;23.98;;;6.90;99.90;;;;;;12477588;28;20056;-36
2024/02/23 10:44:21;;;;;;;23.92;22.63;;;6.90;99.90;;;;;;12498642;28;20049;-36
2024/02/23 10:50:26;;;;;;;23.52;22.15;;;6.90;99.90;;;;;;12497169;28;20049;-36
2024/02/23 10:56:28;;;;;;;21.13;20.02;;;7.10;99.90;;;;;;12498877;28;20049;-36
2024/02/23 11:02:32;;;;;;;19.50;18.40;;;7.10;99.90;;;;;;12496399;28;20137;-36
2024/02/23 11:08:37;;;;;;;19.55;18.25;;;7.20;99.90;;;;;;12502509;28;20452;-36
2024/02/23 11:14:39;;;;;;;19.90;18.80;;;7.30;99.90;;;;;;12504717;28;20080;-36
2024/02/23 11:20:43;;;;;;;19.15;17.75;;;7.30;99.90;;;;;;12486731;28;20053;-36
2024/02/23 11:26:48;;;;;;;17.33;16.33;;;7.50;99.90;;;;;;12514445;28;20087;-35
2024/02/23 11:32:58;;;;;;;16.17;15.27;;;7.50;99.90;;;;;;12503014;28;20517;-36
2024/02/23 11:39:00;;;;;;;16.42;15.48;;;7.90;99.90;;;;;;12492408;28;20171;-36
2024/02/23 11:45:03;;;;;;;16.08;15.07;;;8.10;99.90;;;;;;12497650;28;20049;-37
2024/02/23 11:51:05;;;;;;;17.08;16.08;;;8.30;99.90;;;;;;12484147;28;20587;-36
2024/02/23 11:57:07;;;;;;;16.38;15.02;;;8.10;99.90;;;;;;12484722;28;20565;-37
2024/02/23 12:03:09;;;;;;;18.02;16.77;;;8.00;99.90;;;;;;12481723;28;20045;-36
2024/02/23 12:09:12;;;;;;;18.50;17.40;;;8.00;99.90;;;;;;12497304;28;20049;-37
2024/02/23 12:15:14;;;;;;;20.70;19.50;;;7.90;99.90;;;;;;12498843;28;20080;-36
2024/02/23 12:21:17;;;;;;;19.00;17.73;;;8.00;99.90;;;;;;12491789;28;20183;-36
2024/02/23 12:27:21;;;;;;;19.25;18.15;;;8.00;99.90;;;;;;12500832;28;20072;-37
2024/02/23 12:33:23;;;;;;;17.53;16.50;;;8.00;99.90;;;;;;12502399;28;20056;-36
2024/02/23 12:39:26;;;;;;;16.17;15.18;;;8.20;99.90;;;;;;12503890;28;20048;-37
2024/02/23 12:45:28;;;;;;;13.55;12.75;;;8.20;99.90;;;;;;12503376;28;20413;-36
2024/02/23 12:51:30;;;;;;;10.18;9.57;;;8.30;99.90;;;;;;12528122;28;20095;-36
2024/02/23 12:57:32;;;;;;;10.73;10.13;;;8.40;99.90;;;;;;12514366;28;20159;-36
2024/02/23 13:03:34;;;;;;;14.50;13.60;;;8.30;99.90;;;;;;12505981;28;20045;-36
2024/02/23 13:09:36;;;;;;;13.75;12.95;;;8.30;99.90;;;;;;12498801;28;20171;-36
2024/02/23 13:15:38;;;;;;;15.88;14.90;;;8.20;99.90;;;;;;12509622;28;20139;-36
2024/02/23 13:21:40;;;;;;;13.60;12.75;;;8.30;99.90;;;;;;12506017;28;20072;-36
2024/02/23 13:27:42;;;;;;;11.82;11.13;;;8.40;99.90;;;;;;12525406;28;20488;-36
2024/02/23 13:33:45;;;;;;;12.80;11.90;;;8.70;99.90;;;;;;12516049;28;20416;-36
2024/02/23 13:39:48;;;;;;;15.10;14.20;;;8.70;99.90;;;;;;12489008;28;20413;-37
2024/02/23 13:45:52;;;;;;;14.45;13.27;;;8.70;99.90;;;;;;12512670;28;20052;-37
2024/02/23 13:51:55;;;;;;;13.70;12.80;;;8.50;99.90;;;;;;12501535;28;20056;-37
2024/02/23 13:57:56;;;;;;;11.68;11.07;;;8.60;99.90;;;;;;12518932;28;20741;-36
2024/02/23 14:03:58;;;;;;;13.25;12.55;;;8.40;99.90;;;;;;12516217;28;20045;-37
2024/02/23 14:10:02;;;;;;;17.60;16.70;;;8.40;99.90;;;;;;12497374;28;20044;-37
2024/02/23 14:16:05;;;;;;;13.60;12.80;;;8.40;99.90;;;;;;12508653;28;20075;-36
2024/02/23 14:22:07;;;;;;;12.90;12.15;;;8.30;99.90;;;;;;12482905;28;20049;-36
2024/02/23 14:28:09;;;;;;;16.45;15.55;;;8.30;99.90;;;;;;12487443;28;20132;-36
2024/02/23 14:34:11;;;;;;;18.98;17.90;;;8.20;99.90;;;;;;12495175;28;20136;-36
2024/02/23 14:40:14;;;;;;;23.70;22.40;;;8.10;99.90;;;;;;12472093;28;20057;-36
2024/02/23 14:46:16;;;;;;;26.60;25.30;;;8.00;99.90;;;;;;12493751;28;20056;-36
2024/02/23 14:52:18;;;;;;;20.20;19.00;;;7.30;99.90;;;;;;12484254;28;20145;-36
2024/02/23 14:58:20;;;;;;;20.20;19.08;;;7.30;99.90;;;;;;12486010;28;20053;-35
2024/02/23 15:04:22;;;;;;;19.75;18.65;;;7.40;99.90;;;;;;12499628;28;20096;-36
2024/02/23 15:10:24;;;;;;;20.42;18.95;;;7.50;99.90;;;;;;12485925;28;20045;-37
2024/02/23 15:16:27;;;;;;;18.45;17.35;;;7.60;99.90;;;;;;12479508;28;20136;-36
2024/02/23 15:22:29;;;;;;;20.30;19.20;;;7.70;99.90;;;;;;12480550;28;20057;-35
2024/02/23 15:28:31;;;;;;;21.83;20.73;;;7.70;99.90;;;;;;12513183;28;20049;-36
2024/02/23 15:34:33;;;;;;;21.75;20.48;;;7.50;99.90;;;;;;12516835;28;20041;-36
2024/02/23 15:40:35;;;;;;;21.05;19.95;;;7.40;99.90;;;;;;12501619;28;20049;-36
2024/02/23 15:46:37;;;;;;;18.88;17.88;;;7.40;99.90;;;;;;12502834;28;20041;-36
2024/02/23 15:52:39;;;;;;;18.40;17.30;;;7.60;99.90;;;;;;12518453;28;20076;-35
2024/02/23 15:58:41;;;;;;;19.13;18.13;;;7.60;99.90;;;;;;12515014;28;20059;-35
2024/02/23 16:04:43;;;;;;;20.80;19.63;;;7.60;99.90;;;;;;12512588;28;20052;-36
2024/02/23 16:10:46;;;;;;;20.92;19.75;;;7.50;99.90;;;;;;12481807;28;20053;-36
2024/02/23 16:16:50;;;;;;;19.90;18.67;;;7.50;99.90;;;;;;12501478;28;20045;-36
2024/02/23 16:22:52;;;;;;;19.83;18.83;;;7.40;99.90;;;;;;12497838;28;20045;-36
2024/02/23 16:28:56;;;;;;;21.00;19.70;;;7.40;99.90;;;;;;12494792;28;20048;-36
2024/02/23 16:34:58;;;;;;;22.10;20.60;;;7.40;99.90;;;;;;12506273;28;20064;-34
2024/02/23 16:41:00;;;;;;;20.67;19.60;;;7.30;99.90;;;;;;12491585;28;20053;-36
2024/02/23 16:47:02;;;;;;;20.40;19.30;;;7.40;99.90;;;;;;12497457;28;20048;-37
2024/02/23 16:53:04;;;;;;;18.42;17.27;;;7.50;99.90;;;;;;12492531;28;20042;-37
2024/02/23 16:59:06;;;;;;;17.70;16.67;;;7.50;99.90;;;;;;12492541;28;20172;-36
2024/02/23 17:05:08;;;;;;;17.25;16.20;;;7.50;99.90;;;;;;12495728;28;20045;-37
2024/02/23 17:11:10;;;;;;;18.63;17.63;;;7.50;99.90;;;;;;12477278;28;20132;-37
2024/02/23 17:17:13;;;;;;;18.90;17.90;;;7.40;99.90;;;;;;12488717;28;20095;-36
2024/02/23 17:23:15;;;;;;;18.83;17.77;;;7.30;99.90;;;;;;12521023;28;20056;-36
2024/02/23 17:29:17;;;;;;;19.35;18.25;;;7.30;99.90;;;;;;12486887;28;20409;-37
2024/02/23 17:35:19;;;;;;;22.20;20.73;;;7.30;99.90;;;;;;12508302;28;20053;-36
2024/02/23 17:41:21;;;;;;;20.10;19.08;;;7.10;99.90;;;;;;12504207;28;20084;-36
2024/02/23 17:47:26;;;;;;;19.95;18.75;;;7.00;99.90;;;;;;12503694;28;20056;-37
2024/02/23 17:53:28;;;;;;;20.92;19.73;;;6.90;99.90;;;;;;12500225;28;20049;-37
2024/02/23 17:59:30;;;;;;;20.27;19.17;;;6.80;99.90;;;;;;12500501;28;20045;-36
2024/02/23 18:05:32;;;;;;;22.30;21.00;;;6.70;99.90;;;;;;12505959;28;20060;-37
2024/02/23 18:11:34;;;;;;;22.27;20.70;;;6.50;99.90;;;;;;12515500;28;20045;-36
2024/02/23 18:17:36;;;;;;;20.25;19.25;;;6.50;99.90;;;;;;12494612;28;20105;-36
2024/02/23 18:23:38;;;;;;;20.60;19.30;;;6.50;99.90;;;;;;12486593;28;20099;-35
2024/02/23 18:29:41;;;;;;;19.33;18.23;;;6.60;99.90;;;;;;12503431;28;20102;-36
2024/02/23 18:35:43;;;;;;;20.48;19.27;;;6.70;99.90;;;;;;12491791;28;20054;-36
2024/02/23 18:41:45;;;;;;;19.40;18.40;;;6.80;99.90;;;;;;12481016;28;20099;-36
2024/02/23 18:47:47;;;;;;;20.15;18.83;;;6.80;99.90;;;;;;12495563;28;20055;-36
2024/02/23 18:53:49;;;;;;;20.15;18.88;;;6.80;99.90;;;;;;12486962;28;20045;-37
2024/02/23 18:59:51;;;;;;;17.70;16.65;;;6.70;99.90;;;;;;12511511;28;20073;-36
2024/02/23 19:05:53;;;;;;;17.60;16.63;;;6.80;99.90;;;;;;12483261;28;20057;-37
2024/02/23 19:11:55;;;;;;;19.05;17.95;;;6.70;99.90;;;;;;12491773;28;20413;-36
2024/02/23 19:17:58;;;;;;;18.77;17.58;;;6.60;99.90;;;;;;12514919;28;20052;-36
2024/02/23 19:24:00;;;;;;;19.55;18.27;;;6.50;99.90;;;;;;12537130;28;20107;-36
2024/02/23 19:30:03;;;;;;;20.00;18.80;;;6.50;99.90;;;;;;12516431;28;20090;-37
2024/02/23 19:36:09;;;;;;;18.90;17.88;;;6.50;99.90;;;;;;12498961;28;20094;-36
2024/02/23 19:42:13;;;;;;;16.75;15.85;;;6.50;99.90;;;;;;12511000;28;20060;-36
2024/02/23 19:48:14;;;;;;;18.55;17.38;;;6.50;99.90;;;;;;12502713;28;20083;-36
2024/02/23 19:54:16;;;;;;;18.23;17.23;;;6.50;99.90;;;;;;12513536;28;20045;-36
2024/02/23 20:00:18;;;;;;;18.55;17.50;;;6.60;99.90;;;;;;12521531;28;20139;-36
2024/02/23 20:06:20;;;;;;;16.83;15.63;;;6.60;99.90;;;;;;12515679;28;20057;-36
2024/02/23 20:12:22;;;;;;;17.30;15.95;;;6.60;99.90;;;;;;12513895;28;20136;-36
2024/02/23 20:18:24;;;;;;;17.13;16.08;;;6.60;99.90;;;;;;12519870;28;20087;-36
2024/02/23 20:24:27;;;;;;;18.00;16.90;;;6.60;99.90;;;;;;12474815;28;20484;-36
2024/02/23 20:30:29;;;;;;;15.85;14.93;;;6.60;99.90;;;;;;12506795;28;20053;-36
2024/02/23 20:36:31;;;;;;;15.57;14.65;;;6.60;99.90;;;;;;12470595;28;20073;-37
2024/02/23 20:42:33;;;;;;;14.25;13.25;;;6.60;99.90;;;;;;12498014;28;20073;-36
2024/02/23 20:48:34;;;;;;;15.45;14.40;;;6.60;99.90;;;;;;12491459;28;20509;-36
2024/02/23 20:54:36;;;;;;;15.38;14.38;;;6.50;99.90;;;;;;12492986;28;20049;-36
2024/02/23 21:00:38;;;;;;;15.02;14.13;;;6.40;99.90;;;;;;12510630;28;20049;-35
2024/02/23 21:06:40;;;;;;;14.05;13.25;;;6.40;99.90;;;;;;12495875;28;20049;-36
2024/02/23 21:12:42;;;;;;;15.77;14.77;;;6.30;99.90;;;;;;12486553;28;20083;-36
2024/02/23 21:18:44;;;;;;;16.42;15.27;;;6.20;99.90;;;;;;12508002;28;20144;-36
2024/02/23 21:24:46;;;;;;;16.30;14.98;;;6.10;99.90;;;;;;12504664;28;20049;-36
2024/02/23 21:30:53;;;;;;;16.02;15.13;;;6.00;99.90;;;;;;12520585;28;20064;-36
2024/02/23 21:36:55;;;;;;;15.40;14.23;;;6.00;99.90;;;;;;12510422;28;20053;-36
2024/02/23 21:43:00;;;;;;;15.50;14.68;;;5.90;99.90;;;;;;12507094;28;20049;-36
2024/02/23 21:49:02;;;;;;;16.35;15.20;;;5.80;99.90;;;;;;12499286;28;20041;-36
2024/02/23 21:55:05;;;;;;;14.73;13.93;;;5.70;99.90;;;;;;12480246;28;20049;-36
2024/02/23 22:01:07;;;;;;;15.35;14.23;;;5.80;99.90;;;;;;12505685;28;20052;-36
2024/02/23 22:07:12;;;;;;;13.50;12.48;;;5.60;99.90;;;;;;12506725;28;20067;-36
2024/02/23 22:13:15;;;;;;;14.23;13.25;;;5.50;99.90;;;;;;12497317;28;20159;-35
2024/02/23 22:19:16;;;;;;;12.32;11.52;;;5.40;99.90;;;;;;12493271;28;20081;-35
2024/02/23 22:25:18;;;;;;;11.88;10.75;;;5.40;99.90;;;;;;12483164;28;20080;-36
2024/02/23 22:31:20;;;;;;;11.05;10.35;;;5.30;99.90;;;;;;12483953;28;20152;-36
2024/02/23 22:37:22;;;;;;;11.65;10.57;;;5.30;99.90;;;;;;12488754;28;20426;-36
2024/02/23 22:43:25;;;;;;;11.05;10.35;;;5.30;99.90;;;;;;12501785;28;20042;-36
2024/02/23 22:49:27;;;;;;;11.35;10.50;;;5.20;99.90;;;;;;12515451;28;20044;-37
2024/02/23 22:55:29;;;;;;;10.00;9.30;;;5.20;99.90;;;;;;12469186;28;20072;-36
2024/02/23 23:01:31;;;;;;;12.32;10.07;;;5.20;99.90;;;;;;12491062;28;20056;-36
2024/02/23 23:07:35;;;;;;;9.70;8.88;;;5.10;99.90;;;;;;12498842;28;20072;-36
2024/02/23 23:13:37;;;;;;;;;;;5.10;99.90;;;;;;12476034;28;20065;-36
2024/02/23 23:19:39;;;;;;;11.10;8.93;;;5.00;99.90;;;;;;12486050;28;20340;-36
2024/02/23 23:25:41;;;;;;;9.70;8.90;;;4.90;99.90;;;;;;12518427;28;20528;-36
2024/02/23 23:31:43;;;;;;;9.43;8.77;;;4.90;99.90;;;;;;12507546;28;20052;-36
2024/02/23 23:37:44;;;;;;;9.45;8.75;;;4.90;99.90;;;;;;12497084;28;20133;-36
2024/02/23 23:43:47;;;;;;;9.82;9.23;;;4.80;99.90;;;;;;12512485;28;20053;-36
2024/02/23 23:49:49;;;;;;;10.25;9.65;;;4.70;99.90;;;;;;12496792;28;20407;-36
2024/02/23 23:55:51;;;;;;;10.00;9.25;;;4.70;99.90;;;;;;12484187;28;20049;-36
